createdAt,value
2024-05-09T00:01:57.875Z,48
2024-05-09T00:04:57.864Z,39
2024-05-09T00:06:57.952Z,47
2024-05-09T00:08:57.907Z,42
2024-05-09T00:11:57.946Z,45
2024-05-09T00:13:58.003Z,42
2024-05-09T00:15:57.937Z,42
2024-05-09T00:18:58.009Z,41
2024-05-09T00:21:57.864Z,42
2024-05-09T00:24:57.824Z,47
2024-05-09T00:26:57.878Z,45
2024-05-09T00:29:57.851Z,44
2024-05-09T00:31:57.883Z,45
2024-05-09T00:34:57.864Z,45
2024-05-09T00:36:57.857Z,46
2024-05-09T00:39:57.827Z,46
2024-05-09T00:41:58.327Z,43
2024-05-09T00:43:58.164Z,45
2024-05-09T00:45:58.255Z,41
2024-05-09T00:48:58.201Z,35
2024-05-09T00:50:57.929Z,47
2024-05-09T00:52:59.734Z,49
2024-05-09T00:54:58.032Z,45
2024-05-09T00:57:59.404Z,50
2024-05-09T01:01:00.548Z,45
2024-05-09T01:03:57.934Z,44
2024-05-09T01:05:57.981Z,44
2024-05-09T01:08:57.836Z,41
2024-05-09T01:11:57.873Z,44
2024-05-09T01:13:57.844Z,42
2024-05-09T01:16:57.865Z,42
2024-05-09T01:18:57.902Z,43
2024-05-09T01:22:02.859Z,40
2024-05-09T01:24:57.866Z,46
2024-05-09T01:27:57.956Z,46
2024-05-09T01:30:58.008Z,45
2024-05-09T01:32:58.043Z,42
2024-05-09T01:35:57.851Z,46
2024-05-09T01:38:57.841Z,45
2024-05-09T01:40:57.996Z,42
2024-05-09T01:43:57.857Z,44
2024-05-09T01:45:57.892Z,42
2024-05-09T01:48:57.924Z,44
2024-05-09T01:51:57.829Z,48
2024-05-09T01:53:57.864Z,47
2024-05-09T01:56:57.848Z,42
2024-05-09T01:59:57.881Z,42
2024-05-09T02:02:57.989Z,54
2024-05-09T02:04:57.941Z,48
2024-05-09T02:06:57.864Z,44
2024-05-09T02:09:57.822Z,46
2024-05-09T02:12:57.856Z,43
2024-05-09T02:14:57.854Z,51
2024-05-09T02:16:57.880Z,46
2024-05-09T02:19:57.880Z,46
2024-05-09T02:22:57.873Z,41
2024-05-09T02:24:57.862Z,49
2024-05-09T02:27:57.869Z,46
2024-05-09T02:30:57.871Z,51
2024-05-09T02:32:58.090Z,44
2024-05-09T02:35:57.897Z,44
2024-05-09T02:38:57.835Z,48
2024-05-09T02:40:57.897Z,46
2024-05-09T02:42:57.873Z,47
2024-05-09T02:45:57.874Z,47
2024-05-09T02:47:58.140Z,44
2024-05-09T02:50:57.867Z,48
2024-05-09T02:52:57.938Z,45
2024-05-09T02:54:57.942Z,48
2024-05-09T02:57:57.831Z,45
2024-05-09T02:59:57.855Z,48
2024-05-09T03:02:57.927Z,52
2024-05-09T03:05:57.881Z,54
2024-05-09T03:07:57.916Z,44
2024-05-09T03:10:57.943Z,51
2024-05-09T03:13:57.910Z,48
2024-05-09T03:15:57.879Z,51
2024-05-09T03:18:57.894Z,50
2024-05-09T03:20:57.930Z,48
2024-05-09T03:23:57.859Z,46
2024-05-09T03:26:57.854Z,52
2024-05-09T03:29:57.855Z,52
2024-05-09T03:31:57.944Z,51
2024-05-09T03:33:58.187Z,50
2024-05-09T03:36:57.895Z,51
2024-05-09T03:38:57.859Z,50
2024-05-09T03:40:57.930Z,51
2024-05-09T03:42:57.865Z,55
2024-05-09T03:44:57.927Z,49
2024-05-09T03:47:58.040Z,55
2024-05-09T03:50:57.918Z,53
2024-05-09T03:53:57.905Z,55
2024-05-09T03:55:57.944Z,52
2024-05-09T03:57:57.899Z,54
2024-05-09T04:00:57.878Z,59
2024-05-09T04:02:57.917Z,54
2024-05-09T04:04:58.188Z,58
2024-05-09T04:07:57.929Z,55
2024-05-09T04:09:57.879Z,63
2024-05-09T04:12:57.883Z,50
2024-05-09T04:14:57.872Z,54
2024-05-09T04:16:57.897Z,51
2024-05-09T04:19:57.877Z,57
2024-05-09T04:21:57.885Z,52
2024-05-09T04:23:57.874Z,53
2024-05-09T04:26:57.903Z,58
2024-05-09T04:29:57.859Z,54
2024-05-09T04:31:57.895Z,58
2024-05-09T04:33:58.089Z,52
2024-05-09T04:36:57.856Z,55
2024-05-09T04:38:57.910Z,54
2024-05-09T04:41:57.889Z,59
2024-05-09T04:43:57.879Z,55
2024-05-09T04:45:57.937Z,59
2024-05-09T04:48:57.923Z,63
2024-05-09T04:50:57.858Z,63
2024-05-09T04:53:57.901Z,64
2024-05-09T04:55:57.920Z,62
2024-05-09T04:58:57.887Z,57
2024-05-09T05:00:57.938Z,60
2024-05-09T05:03:59.274Z,71
2024-05-09T05:07:00.405Z,58
2024-05-09T05:08:57.897Z,60
2024-05-09T05:11:57.925Z,69
2024-05-09T05:14:57.899Z,61
2024-05-09T05:16:57.933Z,65
2024-05-09T05:19:57.944Z,64
2024-05-09T05:22:57.913Z,59
2024-05-09T05:25:57.899Z,56
2024-05-09T05:28:57.941Z,66
2024-05-09T05:30:57.904Z,65
2024-05-09T05:33:57.928Z,67
2024-05-09T05:36:57.888Z,62
2024-05-09T05:39:57.871Z,55
2024-05-09T05:42:57.965Z,62
2024-05-09T05:44:57.887Z,66
2024-05-09T05:46:58.019Z,64
2024-05-09T05:49:57.905Z,70
2024-05-09T05:52:57.922Z,64
2024-05-09T05:55:58.342Z,59
2024-05-09T05:58:57.925Z,65
2024-05-09T06:00:57.932Z,61
2024-05-09T06:04:03.054Z,64
2024-05-09T06:07:02.874Z,62
2024-05-09T06:09:57.875Z,62
2024-05-09T06:11:57.960Z,62
2024-05-09T06:14:57.919Z,61
2024-05-09T06:17:58.065Z,60
2024-05-09T06:20:57.892Z,67
2024-05-09T06:22:57.947Z,62
2024-05-09T06:25:58.026Z,62
2024-05-09T06:28:57.887Z,61
2024-05-09T06:30:57.889Z,65
2024-05-09T06:32:57.959Z,63
2024-05-09T06:36:02.860Z,67
2024-05-09T06:38:57.866Z,67
2024-05-09T06:40:57.939Z,64
2024-05-09T06:43:57.936Z,65
2024-05-09T06:45:58.040Z,74
2024-05-09T06:48:58.031Z,66
2024-05-09T06:50:57.914Z,66
2024-05-09T06:53:57.871Z,65
2024-05-09T06:55:57.928Z,68
2024-05-09T06:57:57.892Z,73
2024-05-09T06:59:57.918Z,62
2024-05-09T07:02:59.673Z,71
2024-05-09T07:05:57.956Z,74
2024-05-09T07:08:57.867Z,75
2024-05-09T07:10:57.936Z,75
2024-05-09T07:13:57.892Z,77
2024-05-09T07:16:58.007Z,80
2024-05-09T07:19:57.916Z,78
2024-05-09T07:21:57.883Z,39
2024-05-09T07:24:57.899Z,47
2024-05-09T07:27:57.890Z,67
2024-05-09T07:29:57.960Z,72
2024-05-09T07:32:58.105Z,61
2024-05-09T07:34:57.920Z,40
2024-05-09T07:37:58.000Z,39
2024-05-09T07:40:58.052Z,41
2024-05-09T07:43:57.974Z,38
2024-05-09T07:46:00.637Z,53
2024-05-09T07:49:45.182Z,65
2024-05-09T07:53:59.836Z,47
2024-05-09T07:55:58.409Z,37
2024-05-09T07:58:57.957Z,64
2024-05-09T08:01:58.042Z,36
2024-05-09T08:04:57.987Z,58
2024-05-09T08:06:57.995Z,66
2024-05-09T08:08:59.216Z,51
2024-05-09T08:11:58.015Z,38
2024-05-09T08:13:57.913Z,36
2024-05-09T08:16:57.902Z,42
2024-05-09T08:18:58.086Z,54
2024-05-09T08:20:58.050Z,49
2024-05-09T08:22:57.904Z,46
2024-05-09T08:24:57.913Z,37
2024-05-09T08:27:57.923Z,47
2024-05-09T08:30:58.047Z,34
2024-05-09T08:32:58.025Z,36
2024-05-09T08:34:58.041Z,39
2024-05-09T08:37:58.013Z,35
2024-05-09T08:39:57.944Z,34
2024-05-09T08:42:57.973Z,37
2024-05-09T08:45:58.114Z,32
2024-05-09T08:47:58.039Z,35
2024-05-09T08:50:57.919Z,35
2024-05-09T08:52:57.923Z,35
2024-05-09T08:55:57.961Z,37
2024-05-09T08:58:57.916Z,40
2024-05-09T09:01:58.042Z,34
2024-05-09T09:03:57.968Z,40
2024-05-09T09:06:58.741Z,35
2024-05-09T09:08:57.917Z,33
2024-05-09T09:11:57.958Z,33
2024-05-09T09:14:57.922Z,42
2024-05-09T09:16:57.925Z,36
2024-05-09T09:19:57.982Z,36
2024-05-09T09:22:57.907Z,38
2024-05-09T09:24:57.937Z,38
2024-05-09T09:27:58.099Z,34
2024-05-09T09:30:57.949Z,34
2024-05-09T09:32:58.023Z,33
2024-05-09T09:34:58.047Z,33
2024-05-09T09:37:57.898Z,33
2024-05-09T09:39:58.110Z,35
2024-05-09T09:41:58.158Z,37
2024-05-09T09:45:01.905Z,33
2024-05-09T09:46:57.976Z,34
2024-05-09T09:48:57.996Z,31
2024-05-09T09:51:57.972Z,34
2024-05-09T09:53:57.928Z,33
2024-05-09T09:56:57.929Z,31
2024-05-09T09:59:57.937Z,40
2024-05-09T10:02:58.002Z,34
2024-05-09T10:05:58.229Z,36
2024-05-09T10:07:57.922Z,39
2024-05-09T10:10:58.042Z,44
2024-05-09T10:13:57.924Z,44
2024-05-09T10:15:58.061Z,44
2024-05-09T10:18:58.266Z,36
2024-05-09T10:21:57.921Z,44
2024-05-09T10:23:57.941Z,38
2024-05-09T10:26:57.925Z,38
2024-05-09T10:29:57.978Z,33
2024-05-09T10:32:57.984Z,32
2024-05-09T10:35:57.930Z,35
2024-05-09T10:37:57.932Z,32
2024-05-09T10:40:57.944Z,34
2024-05-09T10:42:57.933Z,35
2024-05-09T10:44:57.930Z,34
2024-05-09T10:46:57.955Z,40
2024-05-09T10:49:57.976Z,35
2024-05-09T10:51:57.942Z,31
2024-05-09T10:53:57.938Z,30
2024-05-09T10:56:57.977Z,30
2024-05-09T10:59:57.897Z,31
2024-05-09T11:01:58.062Z,30
2024-05-09T11:03:58.061Z,29
2024-05-09T11:05:57.978Z,30
2024-05-09T11:08:57.954Z,32
2024-05-09T11:10:57.949Z,32
2024-05-09T11:13:57.975Z,27
2024-05-09T11:16:57.937Z,31
2024-05-09T11:19:57.954Z,29
2024-05-09T11:22:57.940Z,27
2024-05-09T11:25:57.954Z,29
2024-05-09T11:27:57.979Z,25
2024-05-09T11:30:57.933Z,27
2024-05-09T11:32:57.991Z,24
2024-05-09T11:34:57.943Z,21
2024-05-09T11:37:57.946Z,26
2024-05-09T11:39:58.100Z,26
2024-05-09T11:42:57.972Z,24
2024-05-09T11:44:57.959Z,27
2024-05-09T11:47:58.111Z,27
2024-05-09T11:50:57.976Z,26
2024-05-09T11:52:57.941Z,26
2024-05-09T11:55:57.975Z,25
2024-05-09T11:58:57.957Z,25
2024-05-09T12:01:57.956Z,24
2024-05-09T12:03:58.471Z,24
2024-05-09T12:07:03.010Z,25
2024-05-09T12:09:58.141Z,21
2024-05-09T12:12:57.989Z,21
2024-05-09T12:14:57.949Z,22
2024-05-09T12:16:58.047Z,38
2024-05-09T12:19:57.946Z,30
2024-05-09T12:22:57.937Z,40
2024-05-09T12:24:58.004Z,25
2024-05-09T12:27:57.984Z,23
2024-05-09T12:30:57.962Z,21
2024-05-09T12:33:58.042Z,22
2024-05-09T12:35:57.952Z,25
2024-05-09T12:38:57.974Z,30
2024-05-09T12:41:57.966Z,20
2024-05-09T12:44:57.970Z,29
2024-05-09T12:46:57.979Z,25
2024-05-09T12:49:57.963Z,30
2024-05-09T12:51:58.029Z,25
2024-05-09T12:54:57.981Z,18
2024-05-09T12:57:57.981Z,29
2024-05-09T12:59:58.038Z,23
2024-05-09T13:02:58.092Z,30
2024-05-09T13:05:58.055Z,32
2024-05-09T13:08:57.960Z,29
2024-05-09T13:10:58.003Z,25
2024-05-09T13:13:57.967Z,27
2024-05-09T13:15:58.078Z,27
2024-05-09T13:18:58.008Z,20
2024-05-09T13:20:57.965Z,16
2024-05-09T13:23:58.374Z,28
2024-05-09T13:25:58.005Z,27
2024-05-09T13:27:58.066Z,26
2024-05-09T13:30:58.030Z,32
2024-05-09T13:33:58.105Z,25
2024-05-09T13:36:57.987Z,27
2024-05-09T13:38:57.998Z,25
2024-05-09T13:40:58.018Z,23
2024-05-09T13:43:58.038Z,27
2024-05-09T13:45:58.082Z,20
2024-05-09T13:48:58.095Z,19
2024-05-09T13:51:57.988Z,23
2024-05-09T13:53:57.983Z,22
2024-05-09T13:55:57.976Z,22
2024-05-09T13:57:58.474Z,23
2024-05-09T14:00:58.077Z,20
2024-05-09T14:02:58.031Z,22
2024-05-09T14:05:58.175Z,18
2024-05-09T14:08:57.999Z,22
2024-05-09T14:10:58.082Z,23
2024-05-09T14:13:58.003Z,22
2024-05-09T14:16:58.005Z,22
2024-05-09T14:18:58.068Z,23
2024-05-09T14:21:58.051Z,24
2024-05-09T14:23:58.012Z,17
2024-05-09T14:26:58.022Z,16
2024-05-09T14:28:58.018Z,20
2024-05-09T14:31:58.014Z,19
2024-05-09T14:33:58.194Z,22
2024-05-09T14:35:58.072Z,20
2024-05-09T14:38:58.001Z,20
2024-05-09T14:40:58.121Z,17
2024-05-09T14:43:00.337Z,17
2024-05-09T14:45:58.043Z,20
2024-05-09T14:48:58.109Z,16
2024-05-09T14:50:57.988Z,19
2024-05-09T14:52:58.028Z,21
2024-05-09T14:55:58.053Z,19
2024-05-09T14:58:58.017Z,22
2024-05-09T15:00:58.113Z,25
2024-05-09T15:02:58.096Z,22
2024-05-09T15:05:58.388Z,18
2024-05-09T15:07:58.006Z,21
2024-05-09T15:09:58.066Z,18
2024-05-09T15:12:58.016Z,18
2024-05-09T15:14:58.010Z,22
2024-05-09T15:16:58.012Z,19
2024-05-09T15:18:58.091Z,22
2024-05-09T15:21:58.112Z,21
2024-05-09T15:23:58.001Z,22
2024-05-09T15:25:58.004Z,19
2024-05-09T15:28:58.016Z,19
2024-05-09T15:30:58.058Z,21
2024-05-09T15:33:58.100Z,15
2024-05-09T15:35:58.030Z,14
2024-05-09T15:38:58.021Z,16
2024-05-09T15:40:58.054Z,17
2024-05-09T15:43:58.044Z,16
2024-05-09T15:46:58.039Z,16
2024-05-09T15:49:58.075Z,18
2024-05-09T15:51:58.267Z,20
2024-05-09T15:54:58.074Z,18
2024-05-09T15:57:58.031Z,20
2024-05-09T16:00:58.093Z,14
2024-05-09T16:02:58.100Z,20
2024-05-09T16:05:58.053Z,21
2024-05-09T16:08:58.020Z,21
2024-05-09T16:10:58.194Z,17
2024-05-09T16:13:58.039Z,16
2024-05-09T16:16:58.092Z,16
2024-05-09T16:19:58.060Z,17
2024-05-09T16:21:58.121Z,19
2024-05-09T16:24:58.077Z,19
2024-05-09T16:27:58.106Z,17
2024-05-09T16:29:58.043Z,19
2024-05-09T16:32:58.107Z,20
2024-05-09T16:34:58.090Z,18
2024-05-09T16:37:58.051Z,18
2024-05-09T16:40:58.044Z,19
2024-05-09T16:42:58.052Z,17
2024-05-09T16:45:58.075Z,19
2024-05-09T16:48:58.153Z,16
2024-05-09T16:51:58.128Z,18
2024-05-09T16:54:58.096Z,17
2024-05-09T16:57:58.221Z,17
2024-05-09T16:59:58.063Z,22
2024-05-09T17:02:58.183Z,18
2024-05-09T17:04:58.120Z,18
2024-05-09T17:07:58.056Z,19
2024-05-09T17:09:58.242Z,18
2024-05-09T17:12:58.083Z,16
2024-05-09T17:14:58.048Z,19
2024-05-09T17:17:58.149Z,17
2024-05-09T17:19:58.021Z,19
2024-05-09T17:21:58.051Z,17
2024-05-09T17:24:58.080Z,17
2024-05-09T17:26:58.104Z,16
2024-05-09T17:29:58.034Z,21
2024-05-09T17:31:58.051Z,19
2024-05-09T17:34:58.105Z,20
2024-05-09T17:37:58.139Z,17
2024-05-09T17:40:58.164Z,20
2024-05-09T17:43:58.104Z,19
2024-05-09T17:46:58.078Z,18
2024-05-09T17:49:58.189Z,16
2024-05-09T17:52:58.083Z,17
2024-05-09T17:55:58.058Z,16
2024-05-09T17:57:58.216Z,16
2024-05-09T17:59:58.072Z,18
2024-05-09T18:02:58.088Z,19
2024-05-09T18:04:58.244Z,21
2024-05-09T18:06:58.102Z,17
2024-05-09T18:08:58.115Z,17
2024-05-09T18:11:58.266Z,17
2024-05-09T18:13:58.074Z,18
2024-05-09T18:16:58.097Z,20
2024-05-09T18:19:58.082Z,18
2024-05-09T18:22:58.081Z,19
2024-05-09T18:24:58.105Z,19
2024-05-09T18:26:58.083Z,19
2024-05-09T18:28:58.097Z,19
2024-05-09T18:31:58.130Z,21
2024-05-09T18:33:58.242Z,17
2024-05-09T18:36:58.857Z,22
2024-05-09T18:38:58.115Z,22
2024-05-09T18:41:58.093Z,22
2024-05-09T18:44:58.124Z,24
2024-05-09T18:47:58.389Z,22
2024-05-09T18:49:58.221Z,24
2024-05-09T18:52:58.084Z,26
2024-05-09T18:55:58.100Z,27
2024-05-09T18:58:58.106Z,28
2024-05-09T19:01:00.054Z,26
2024-05-09T19:02:58.333Z,24
2024-05-09T19:04:58.238Z,26
2024-05-09T19:07:58.080Z,24
2024-05-09T19:10:58.130Z,20
2024-05-09T19:12:58.101Z,24
2024-05-09T19:15:58.105Z,26
2024-05-09T19:17:58.183Z,24
2024-05-09T19:19:58.127Z,24
2024-05-09T19:22:58.088Z,23
2024-05-09T19:25:58.097Z,22
2024-05-09T19:27:58.248Z,23
2024-05-09T19:29:58.175Z,23
2024-05-09T19:32:58.162Z,23
2024-05-09T19:34:58.122Z,24
2024-05-09T19:37:58.094Z,23
2024-05-09T19:40:58.199Z,24
2024-05-09T19:43:58.453Z,25
2024-05-09T19:45:58.302Z,24
2024-05-09T19:48:58.209Z,26
2024-05-09T19:51:58.134Z,23
2024-05-09T19:53:58.119Z,22
2024-05-09T19:56:58.100Z,25
2024-05-09T19:59:58.087Z,22
2024-05-09T20:01:58.208Z,25
2024-05-09T20:03:58.189Z,21
2024-05-09T20:06:58.157Z,22
2024-05-09T20:09:58.148Z,25
2024-05-09T20:11:58.155Z,22
2024-05-09T20:13:58.162Z,26
2024-05-09T20:16:58.132Z,26
2024-05-09T20:18:58.241Z,28
2024-05-09T20:21:58.164Z,28
2024-05-09T20:23:58.116Z,25
2024-05-09T20:26:58.112Z,26
2024-05-09T20:28:58.136Z,26
2024-05-09T20:30:58.332Z,24
2024-05-09T20:33:58.150Z,26
2024-05-09T20:35:58.823Z,24
2024-05-09T20:37:58.146Z,26
2024-05-09T20:39:58.164Z,25
2024-05-09T20:42:58.118Z,26
2024-05-09T20:44:58.125Z,25
2024-05-09T20:47:58.376Z,28
2024-05-09T20:50:58.122Z,27
2024-05-09T20:53:58.130Z,24
2024-05-09T20:56:58.119Z,24
2024-05-09T20:59:58.111Z,28
2024-05-09T21:01:58.258Z,27
2024-05-09T21:04:58.187Z,25
2024-05-09T21:06:58.166Z,25
2024-05-09T21:08:58.138Z,24
2024-05-09T21:11:58.112Z,26
2024-05-09T21:14:58.129Z,25
2024-05-09T21:16:58.218Z,24
2024-05-09T21:19:58.119Z,26
2024-05-09T21:22:58.165Z,27
2024-05-09T21:24:58.180Z,27
2024-05-09T21:27:58.276Z,27
2024-05-09T21:29:58.123Z,31
2024-05-09T21:32:58.272Z,26
2024-05-09T21:34:58.192Z,25
2024-05-09T21:36:58.155Z,28
2024-05-09T21:39:58.117Z,25
2024-05-09T21:41:58.143Z,24
2024-05-09T21:44:58.134Z,29
2024-05-09T21:47:58.191Z,26
2024-05-09T21:50:58.122Z,30
2024-05-09T21:52:58.160Z,30
2024-05-09T21:55:58.132Z,27
2024-05-09T21:57:58.186Z,29
2024-05-09T22:00:58.198Z,30
2024-05-09T22:03:58.309Z,28
2024-05-09T22:05:58.176Z,28
2024-05-09T22:08:58.166Z,26
2024-05-09T22:11:58.267Z,28
2024-05-09T22:14:58.225Z,31
2024-05-09T22:17:58.263Z,29
2024-05-09T22:20:58.137Z,25
2024-05-09T22:23:58.174Z,27
2024-05-09T22:26:58.158Z,33
2024-05-09T22:29:58.144Z,29
2024-05-09T22:31:58.184Z,29
2024-05-09T22:34:58.126Z,27
2024-05-09T22:36:58.285Z,29
2024-05-09T22:39:58.161Z,29
2024-05-09T22:41:58.149Z,28
2024-05-09T22:43:58.162Z,29
2024-05-09T22:46:58.157Z,27
2024-05-09T22:48:58.376Z,28
2024-05-09T22:51:58.244Z,30
2024-05-09T22:54:58.175Z,24
2024-05-09T22:56:58.150Z,29
2024-05-09T22:58:58.263Z,28
2024-05-09T23:01:58.216Z,27
2024-05-09T23:03:58.346Z,26
2024-05-09T23:05:58.167Z,27
2024-05-09T23:08:58.139Z,29
2024-05-09T23:10:58.241Z,27
2024-05-09T23:13:58.137Z,28
2024-05-09T23:15:58.166Z,28
2024-05-09T23:18:58.174Z,33
2024-05-09T23:20:58.132Z,30
2024-05-09T23:23:58.173Z,27
2024-05-09T23:26:58.187Z,30
2024-05-09T23:29:58.133Z,32
2024-05-09T23:31:58.141Z,33
2024-05-09T23:34:58.229Z,29
2024-05-09T23:36:58.183Z,29
2024-05-09T23:38:58.170Z,30
2024-05-09T23:41:58.174Z,28
2024-05-09T23:44:58.162Z,32
2024-05-09T23:46:58.172Z,30
2024-05-09T23:48:58.212Z,33
2024-05-09T23:51:58.236Z,29
2024-05-09T23:54:58.171Z,26
2024-05-09T23:56:58.133Z,28
2024-05-09T23:58:58.128Z,30
